Latest Weather Observations for Frankston

IDV60801

Issued at 9:22 am EDT Tuesday 22 January 2019 (issued every 10 minutes, with the page automatically refreshed every 10 minutes)

About weather observations | Map of weather stations | Latest weather observations for VIC | Other Formats
Station Details ID: 086371 Name: FRANKSTON AWS Lat: -38.15 Lon: 145.12 Height: 6.0 m
Data from the previous 72 hours. | See also: Recent months at Frankston
Date/Time
EDT
Temp
°C
App
Temp
°C
Dew
Point
°C
Rel
Hum
%
Delta-T
°C
Wind Press
QNH
hPa
Press
MSL
hPa
Rain since
9am
mm
Dir  Spd
km/h
Gust
km/h
Spd
kts
Gust
kts
22/09:00am - - - - - CALM 0 0 0 0 - - -
22/08:30am - - - - - SE 2 9 1 5 - - -
22/08:00am - - - - - ENE 9 11 5 6 - - -
22/07:30am - - - - - ESE 7 9 4 5 - - -
22/07:00am - - - - - ESE 7 9 4 5 - - -
22/06:30am - - - - - E 7 9 4 5 - - -
22/06:00am - - - - - ESE 7 9 4 5 - - -
22/05:30am - - - - - ESE 2 7 1 4 - - -
22/05:00am - - - - - E 4 11 2 6 - - -
22/04:30am - - - - - ESE 6 9 3 5 - - -
22/04:00am - - - - - ESE 6 9 3 5 - - -
22/03:30am - - - - - SE 7 9 4 5 - - -
22/03:00am - - - - - SSE 9 11 5 6 - - -
22/02:30am - - - - - SSE 7 9 4 5 - - -
22/02:00am - - - - - S 9 9 5 5 - - -
22/01:30am - - - - - SSW 2 6 1 3 - - -
22/01:00am - - - - - CALM 0 7 0 4 - - -
22/12:30am - - - - - SSE 4 9 2 5 - - -
22/12:00am - - - - - CALM 0 0 0 0 - - -
 
Date/Time
EDT
Temp
°C
App
Temp
°C
Dew
Point
°C
Rel
Hum
%
Delta-T
°C
Wind Press
QNH
hPa
Press
MSL
hPa
Rain since
9am
mm
Dir  Spd
km/h
Gust
km/h
Spd
kts
Gust
kts
21/11:30pm - - - - - S 2 7 1 4 - - -
21/11:00pm - - - - - S 4 9 2 5 - - -
21/10:30pm - - - - - ESE 2 7 1 4 - - -
21/10:00pm - - - - - NNE 2 7 1 4 - - -
21/09:30pm - - - - - SW 7 15 4 8 - - -
21/09:00pm - - - - - S 9 17 5 9 - - -
21/08:30pm - - - - - S 13 24 7 13 - - -
21/08:00pm - - - - - S 13 24 7 13 - - -
21/07:30pm - - - - - S 15 26 8 14 - - -
21/07:00pm - - - - - S 13 26 7 14 - - -
21/06:30pm - - - - - SSE 24 35 13 19 - - -
21/06:00pm - - - - - S 20 32 11 17 - - -
21/05:30pm - - - - - S 17 30 9 16 - - -
21/05:00pm - - - - - SSE 15 26 8 14 - - -
21/04:30pm - - - - - SSE 13 22 7 12 - - -
21/04:00pm - - - - - W 13 24 7 13 - - -
21/03:30pm - - - - - W 24 28 13 15 - - -
21/03:00pm - - - - - W 24 28 13 15 - - -
21/02:30pm - - - - - W 22 26 12 14 - - -
21/02:00pm - - - - - W 24 28 13 15 - - -
21/01:30pm - - - - - W 22 26 12 14 - - -
21/01:00pm - - - - - WSW 20 22 11 12 - - -
21/12:30pm - - - - - W 17 20 9 11 - - -
21/12:00pm - - - - - W 17 20 9 11 - - -
21/11:30am - - - - - W 15 17 8 9 - - -
21/11:00am - - - - - W 13 15 7 8 - - -
21/10:30am - - - - - W 13 15 7 8 - - -
21/10:00am - - - - - W 4 11 2 6 - - -
21/09:30am - - - - - SSE 7 11 4 6 - - -
21/09:00am - - - - - E 7 11 4 6 - - -
21/08:30am - - - - - SE 7 11 4 6 - - -
21/08:00am - - - - - ESE 9 13 5 7 - - -
21/07:30am - - - - - SE 9 13 5 7 - - -
21/07:00am - - - - - SE 7 11 4 6 - - -
21/06:30am - - - - - S 4 9 2 5 - - -
21/06:00am - - - - - S 9 11 5 6 - - -
21/05:30am - - - - - S 9 15 5 8 - - -
21/05:00am - - - - - S 7 13 4 7 - - -
21/04:30am - - - - - S 9 11 5 6 - - -
21/04:00am - - - - - S 4 9 2 5 - - -
21/03:30am - - - - - S 9 13 5 7 - - -
21/03:00am - - - - - S 9 15 5 8 - - -
21/02:30am - - - - - S 9 11 5 6 - - -
21/02:00am - - - - - S 11 17 6 9 - - -
21/01:30am - - - - - S 9 15 5 8 - - -
21/01:00am - - - - - S 11 17 6 9 - - -
21/12:30am - - - - - SSE 7 15 4 8 - - -
21/12:00am - - - - - S 9 17 5 9 - - -
 
Date/Time
EDT
Temp
°C
App
Temp
°C
Dew
Point
°C
Rel
Hum
%
Delta-T
°C
Wind Press
QNH
hPa
Press
MSL
hPa
Rain since
9am
mm
Dir  Spd
km/h
Gust
km/h
Spd
kts
Gust
kts
20/11:30pm - - - - - S 9 15 5 8 - - -
20/11:00pm - - - - - S 6 11 3 6 - - -
20/10:30pm - - - - - SW 7 11 4 6 - - -
20/10:00pm - - - - - S 9 17 5 9 - - -
20/09:30pm - - - - - SSW 9 13 5 7 - - -
20/09:00pm - - - - - S 11 19 6 10 - - -
20/08:30pm - - - - - S 9 17 5 9 - - -
20/08:00pm - - - - - S 13 19 7 10 - - -
20/07:30pm - - - - - S 13 19 7 10 - - -
20/07:00pm - - - - - S 13 24 7 13 - - -
20/06:30pm - - - - - SSE 13 20 7 11 - - -
20/06:00pm - - - - - SSE 13 22 7 12 - - -
20/05:30pm - - - - - S 13 20 7 11 - - -
20/05:00pm - - - - - S 13 22 7 12 - - -
20/04:30pm - - - - - WSW 30 39 16 21 - - -
20/04:00pm - - - - - W 30 35 16 19 - - -
20/03:30pm - - - - - WSW 32 37 17 20 - - -
20/03:00pm - - - - - WSW 32 35 17 19 - - -
20/02:30pm - - - - - WSW 28 32 15 17 - - -
20/02:00pm - - - - - WSW 28 32 15 17 - - -
20/01:30pm - - - - - W 24 28 13 15 - - -
20/01:00pm - - - - - WSW 24 28 13 15 - - -
20/12:30pm - - - - - WSW 24 30 13 16 - - -
20/12:00pm - - - - - WSW 20 26 11 14 - - -
20/11:30am - - - - - W 19 22 10 12 - - -
20/11:00am - - - - - WSW 13 26 7 14 - - -
20/10:30am - - - - - WSW 15 19 8 10 - - -
20/10:00am - - - - - WSW 15 22 8 12 - - -
20/09:30am - - - - - SSW 9 13 5 7 - - -
20/09:00am - - - - - WSW 11 15 6 8 - - -
20/08:30am - - - - - SSW 9 19 5 10 - - -
20/08:00am - - - - - SW 7 11 4 6 - - -
20/07:30am - - - - - CALM 0 0 0 0 - - -
20/07:00am - - - - - CALM 0 0 0 0 - - -
20/06:30am - - - - - CALM 0 0 0 0 - - -
20/06:00am - - - - - S 4 9 2 5 - - -
20/05:30am - - - - - S 7 9 4 5 - - -
20/05:00am - - - - - SSE 7 9 4 5 - - -
20/04:30am - - - - - SSW 9 11 5 6 - - -
20/04:00am - - - - - SSW 7 11 4 6 - - -
20/03:30am - - - - - CALM 0 0 0 0 - - -
20/03:00am - - - - - CALM 0 0 0 0 - - -
20/02:30am - - - - - CALM 0 0 0 0 - - -
20/02:00am - - - - - CALM 0 0 0 0 - - -
20/01:30am - - - - - CALM 0 0 0 0 - - -
20/01:00am - - - - - CALM 0 0 0 0 - - -
20/12:30am - - - - - CALM 0 0 0 0 - - -
20/12:00am - - - - - SSE 2 7 1 4 - - -
 
Date/Time
EDT
Temp
°C
App
Temp
°C
Dew
Point
°C
Rel
Hum
%
Delta-T
°C
Wind Press
QNH
hPa
Press
MSL
hPa
Rain since
9am
mm
Dir  Spd
km/h
Gust
km/h
Spd
kts
Gust
kts
19/11:30pm - - - - - S 4 9 2 5 - - -
19/11:00pm - - - - - CALM 0 0 0 0 - - -
19/10:30pm - - - - - SSE 4 7 2 4 - - -
19/10:00pm - - - - - S 9 11 5 6 - - -
19/09:30pm - - - - - S 11 17 6 9 - - -
19/09:00pm - - - - - S 9 13 5 7 - - -
19/08:30pm - - - - - S 13 19 7 10 - - -
19/08:00pm - - - - - SSW 13 22 7 12 - - -
19/07:30pm - - - - - S 17 26 9 14 - - -
19/07:00pm - - - - - SSE 15 26 8 14 - - -
19/06:30pm - - - - - S 17 24 9 13 - - -
19/06:00pm - - - - - SSW 17 26 9 14 - - -
19/05:30pm - - - - - WSW 32 35 17 19 - - -
19/05:00pm - - - - - WSW 30 33 16 18 - - -
19/04:30pm - - - - - WSW 26 30 14 16 - - -
19/04:00pm - - - - - W 22 26 12 14 - - -
19/03:30pm - - - - - W 19 24 10 13 - - -
19/03:00pm - - - - - W 19 24 10 13 - - -
19/02:30pm - - - - - WSW 20 26 11 14 - - -
19/02:00pm - - - - - WSW 24 30 13 16 - - -
19/01:30pm - - - - - WSW 26 32 14 17 - - -
19/01:00pm - - - - - WSW 28 33 15 18 - - -
19/12:30pm - - - - - WSW 30 35 16 19 - - -
19/12:00pm - - - - - WSW 28 33 15 18 - - -
19/11:30am - - - - - WSW 26 30 14 16 - - -
19/11:00am - - - - - WSW 26 30 14 16 - - -
19/10:30am - - - - - WSW 24 30 13 16 - - -
19/10:00am - - - - - WSW 19 26 10 14 - - -
19/09:30am - - - - - WSW 24 30 13 16 - - -

Other Formats:

Comma delimited format used in spreadsheet applications
http://www.bom.gov.au/fwo/IDV60801/IDV60801.94871.axf

JavaScript Object Notation format (JSON) in row-major order
http://www.bom.gov.au/fwo/IDV60801/IDV60801.94871.json